Time;durP1;ratioP1;P1;durP2;ratioP2;P2;SDS_P1;SDS_P2;PMS_P1;PMS_P2;Temp;Humidity;BMP_temperature;BMP_pressure;BME280_temperature;BME280_humidity;BME280_pressure;Samples;Min_cycle;Max_cycle;Signal;HPM_P1;HPM_P2
2023/04/26 00:05:43;;;;;;;11.9;4.2;;;;;;;7.9;74.7;98060;;;;
2023/04/26 00:16:43;;;;;;;11.9;4.2;;;;;;;7.9;74.5;98070;;;;
2023/04/26 00:27:43;;;;;;;11.9;4.2;;;;;;;7.8;73.8;98090;;;;
2023/04/26 00:38:43;;;;;;;10.4;3.8;;;;;;;7.8;73.2;98080;;;;
2023/04/26 00:48:43;;;;;;;10.4;3.8;;;;;;;7.7;72.4;98080;;;;
2023/04/26 00:59:43;;;;;;;10.4;3.8;;;;;;;7.6;71;98090;;;;
2023/04/26 01:09:43;;;;;;;6.3;3.1;;;;;;;7.5;69.9;98100;;;;
2023/04/26 01:20:45;;;;;;;6.3;3.1;;;;;;;7.2;68.1;98110;;;;
2023/04/26 01:31:43;;;;;;;6.3;3.1;;;;;;;7;68.8;98130;;;;
2023/04/26 01:41:43;;;;;;;5.6;2.2;;;;;;;6.7;69.7;98130;;;;
2023/04/26 01:52:43;;;;;;;5.6;2.2;;;;;;;6.5;70.6;98140;;;;
2023/04/26 02:02:43;;;;;;;5.6;2.2;;;;;;;6.5;71.5;98140;;;;
2023/04/26 02:12:43;;;;;;;7.1;3.1;;;;;;;6.3;72;98150;;;;
2023/04/26 02:23:43;;;;;;;7.1;3.1;;;;;;;6.3;72.3;98150;;;;
2023/04/26 02:34:43;;;;;;;13.3;3.8;;;;;;;6.2;72.4;98160;;;;
2023/04/26 02:45:43;;;;;;;13.3;3.8;;;;;;;6;72.2;98150;;;;
2023/04/26 02:56:43;;;;;;;13.3;3.8;;;;;;;5.8;72.9;98150;;;;
2023/04/26 03:06:43;;;;;;;9.5;3.7;;;;;;;5.7;73.8;98150;;;;
2023/04/26 03:16:43;;;;;;;9.5;3.7;;;;;;;5.5;74.5;98160;;;;
2023/04/26 03:26:43;;;;;;;9.5;3.7;;;;;;;5.4;75;98170;;;;
2023/04/26 03:36:43;;;;;;;8.5;3.6;;;;;;;5.2;74.4;98180;;;;
2023/04/26 03:47:43;;;;;;;8.5;3.6;;;;;;;5.1;75.2;98200;;;;
2023/04/26 03:57:43;;;;;;;8.5;3.6;;;;;;;5;75.7;98210;;;;
2023/04/26 04:08:43;;;;;;;8.3;3.9;;;;;;;4.9;75.8;98220;;;;
2023/04/26 04:19:43;;;;;;;8.3;3.9;;;;;;;4.8;75.7;98230;;;;
2023/04/26 04:29:43;;;;;;;8.3;3.9;;;;;;;4.8;75.9;98250;;;;
2023/04/26 04:39:43;;;;;;;12.1;4.3;;;;;;;4.8;75.5;98260;;;;
2023/04/26 04:49:43;;;;;;;12.1;4.3;;;;;;;4.9;75.3;98270;;;;
2023/04/26 05:00:44;;;;;;;12.1;4.3;;;;;;;5.1;75.2;98270;;;;
2023/04/26 05:10:43;;;;;;;11.4;4.5;;;;;;;5.4;75.3;98280;;;;
2023/04/26 05:21:43;;;;;;;11.4;4.5;;;;;;;5.7;74.5;98280;;;;
2023/04/26 05:31:43;;;;;;;11.4;4.5;;;;;;;6;73.4;98300;;;;
2023/04/26 05:42:43;;;;;;;13.7;4.6;;;;;;;6.2;71.8;98300;;;;
2023/04/26 05:53:43;;;;;;;13.7;4.6;;;;;;;6.4;69.4;98310;;;;
2023/04/26 06:03:43;;;;;;;12.7;6.3;;;;;;;6.6;68.8;98310;;;;
2023/04/26 06:13:43;;;;;;;12.7;6.3;;;;;;;6.8;66.5;98310;;;;
2023/04/26 06:24:43;;;;;;;12.7;6.3;;;;;;;7.1;66.3;98320;;;;
2023/04/26 06:34:44;;;;;;;10.1;3.5;;;;;;;7.3;65.2;98310;;;;
2023/04/26 06:45:43;;;;;;;10.1;3.5;;;;;;;7.7;63.9;98310;;;;
2023/04/26 06:55:43;;;;;;;10.1;3.5;;;;;;;7.9;62.6;98320;;;;
2023/04/26 07:06:43;;;;;;;9.3;3.1;;;;;;;8.2;61.8;98320;;;;
2023/04/26 07:16:43;;;;;;;9.3;3.1;;;;;;;8.5;60;98320;;;;
2023/04/26 07:26:43;;;;;;;9.3;3.1;;;;;;;8.6;58.7;98320;;;;
2023/04/26 07:37:43;;;;;;;9.1;2.6;;;;;;;9.1;58.7;98330;;;;
2023/04/26 07:47:43;;;;;;;9.1;2.6;;;;;;;9;57.7;98340;;;;
2023/04/26 07:57:43;;;;;;;9.1;2.6;;;;;;;9.3;55.1;98340;;;;
2023/04/26 08:08:48;;;;;;;7.8;3.1;;;;;;;9.1;55;98350;;;;
2023/04/26 08:18:43;;;;;;;7.8;3.1;;;;;;;9.4;51.6;98350;;;;
2023/04/26 08:28:43;;;;;;;7.8;3.1;;;;;;;9.5;53.1;98350;;;;
2023/04/26 08:39:43;;;;;;;5.4;2.4;;;;;;;10;53.1;98350;;;;
2023/04/26 08:49:43;;;;;;;5.4;2.4;;;;;;;9.5;49.8;98360;;;;
2023/04/26 09:00:44;;;;;;;5.4;2.4;;;;;;;10;51.6;98360;;;;
2023/04/26 09:10:43;;;;;;;7.1;2.8;;;;;;;9.4;53.1;98370;;;;
2023/04/26 09:20:43;;;;;;;7.1;2.8;;;;;;;8.9;61.1;98380;;;;
2023/04/26 09:30:43;;;;;;;7.1;2.8;;;;;;;9.4;59.6;98390;;;;
2023/04/26 09:41:43;;;;;;;7;3.4;;;;;;;10.6;55.2;98370;;;;
2023/04/26 09:51:43;;;;;;;7;3.4;;;;;;;9.4;60;98370;;;;
2023/04/26 10:02:43;;;;;;;7;3.4;;;;;;;9.8;57.6;98380;;;;
2023/04/26 10:12:43;;;;;;;5.5;3.3;;;;;;;9.6;53.6;98370;;;;
2023/04/26 10:23:43;;;;;;;5.5;3.3;;;;;;;9.1;55;98370;;;;
2023/04/26 10:33:43;;;;;;;4.6;2.7;;;;;;;9.7;54.2;98360;;;;
2023/04/26 10:43:43;;;;;;;4.6;2.7;;;;;;;9.4;54;98360;;;;
2023/04/26 10:54:43;;;;;;;4.6;2.7;;;;;;;9.7;50.5;98380;;;;
2023/04/26 11:04:43;;;;;;;7.2;2.4;;;;;;;9.8;48.5;98380;;;;
2023/04/26 11:14:44;;;;;;;7.2;2.4;;;;;;;10.6;47.2;98380;;;;
2023/04/26 11:24:43;;;;;;;7.2;2.4;;;;;;;10.9;47.6;98370;;;;
2023/04/26 11:34:46;;;;;;;6.1;2.6;;;;;;;9.9;48.7;98400;;;;
2023/04/26 11:45:43;;;;;;;6.1;2.6;;;;;;;9.4;48.1;98400;;;;
2023/04/26 11:56:43;;;;;;;6.1;2.6;;;;;;;10.3;45.7;98410;;;;
2023/04/26 12:06:43;;;;;;;3.6;1.5;;;;;;;11;46.5;98410;;;;
2023/04/26 12:16:43;;;;;;;3.6;1.5;;;;;;;10.2;46.9;98400;;;;
2023/04/26 12:26:43;;;;;;;3.6;1.5;;;;;;;10.5;50;98420;;;;
2023/04/26 12:37:44;;;;;;;4.6;2.1;;;;;;;10.5;46.6;98410;;;;
2023/04/26 12:48:44;;;;;;;4.6;2.1;;;;;;;11;45.6;98390;;;;
2023/04/26 12:59:43;;;;;;;4.6;2.1;;;;;;;11.4;44.2;98410;;;;
2023/04/26 13:09:43;;;;;;;6.1;2;;;;;;;11.8;43;98420;;;;
2023/04/26 13:20:43;;;;;;;6.1;2;;;;;;;11.9;42.1;98420;;;;
2023/04/26 13:30:43;;;;;;;6.1;2;;;;;;;11.9;41.3;98420;;;;
2023/04/26 13:40:43;;;;;;;8.7;2;;;;;;;11;44.3;98440;;;;
2023/04/26 13:51:43;;;;;;;8.7;2;;;;;;;11.4;44.1;98440;;;;
2023/04/26 14:01:43;;;;;;;8.7;2;;;;;;;11.5;42.1;98440;;;;
2023/04/26 14:12:43;;;;;;;5.7;2.1;;;;;;;10.9;42.2;98430;;;;
2023/04/26 14:22:44;;;;;;;5.7;2.1;;;;;;;10.6;44.5;98440;;;;
2023/04/26 14:33:43;;;;;;;5.4;2.3;;;;;;;10.5;45.1;98470;;;;
2023/04/26 14:44:45;;;;;;;5.4;2.3;;;;;;;9.9;46.6;98470;;;;
2023/04/26 14:55:43;;;;;;;5.4;2.3;;;;;;;9.9;47.6;98470;;;;
2023/04/26 15:05:43;;;;;;;3.8;2;;;;;;;9.7;45.2;98470;;;;
2023/04/26 15:15:43;;;;;;;3.8;2;;;;;;;10.8;45.7;98490;;;;
2023/04/26 15:26:43;;;;;;;3.8;2;;;;;;;12.2;42.2;98480;;;;
2023/04/26 15:36:43;;;;;;;6.5;1.9;;;;;;;11.3;42.1;98490;;;;
2023/04/26 15:47:43;;;;;;;6.5;1.9;;;;;;;10.3;44.9;98490;;;;
2023/04/26 15:58:43;;;;;;;6.5;1.9;;;;;;;10.2;45.6;98510;;;;
2023/04/26 16:09:44;;;;;;;5.3;2.2;;;;;;;10.3;48.2;98510;;;;
2023/04/26 16:19:43;;;;;;;5.3;2.2;;;;;;;11.2;45.8;98520;;;;
2023/04/26 16:30:43;;;;;;;5.3;2.2;;;;;;;10.3;46.7;98520;;;;
2023/04/26 16:40:44;;;;;;;8.3;2.3;;;;;;;9.9;48.9;98520;;;;
2023/04/26 16:51:50;;;;;;;8.3;2.3;;;;;;;9.9;48.5;98520;;;;
2023/04/26 17:01:44;;;;;;;8.3;2.3;;;;;;;9.7;48.7;98540;;;;
2023/04/26 17:11:43;;;;;;;9.1;2.2;;;;;;;9;49.5;98550;;;;
2023/04/26 17:22:44;;;;;;;9.1;2.2;;;;;;;8.6;51.4;98560;;;;
2023/04/26 17:33:43;;;;;;;4.1;2.3;;;;;;;8.3;53.2;98580;;;;
2023/04/26 17:44:43;;;;;;;4.1;2.3;;;;;;;7.9;54.7;98590;;;;
2023/04/26 17:54:43;;;;;;;4.1;2.3;;;;;;;7.6;55.2;98600;;;;
2023/04/26 18:04:44;;;;;;;5.2;2.1;;;;;;;7.2;56.6;98610;;;;
2023/04/26 18:15:44;;;;;;;5.2;2.1;;;;;;;6.8;58.2;98620;;;;
2023/04/26 18:25:44;;;;;;;5.2;2.1;;;;;;;6.5;59;98630;;;;
2023/04/26 18:35:44;;;;;;;6.7;2.8;;;;;;;6.2;61.1;98640;;;;
2023/04/26 18:46:44;;;;;;;6.7;2.8;;;;;;;6;61.1;98660;;;;
2023/04/26 18:56:44;;;;;;;6.7;2.8;;;;;;;5.8;62.3;98670;;;;
2023/04/26 19:06:44;;;;;;;8;4.6;;;;;;;5.5;62.5;98680;;;;
2023/04/26 19:17:46;;;;;;;8;4.6;;;;;;;5.3;63.7;98680;;;;
2023/04/26 19:27:43;;;;;;;8;4.6;;;;;;;5.2;64.7;98680;;;;
2023/04/26 19:37:44;;;;;;;12;4.5;;;;;;;5.1;65.5;98680;;;;
2023/04/26 19:47:44;;;;;;;12;4.5;;;;;;;4.9;65.9;98680;;;;
2023/04/26 19:57:44;;;;;;;12;4.5;;;;;;;4.7;66;98690;;;;
2023/04/26 20:08:44;;;;;;;10;4.6;;;;;;;4.4;66;98690;;;;
2023/04/26 20:19:44;;;;;;;10;4.6;;;;;;;4.2;66.7;98690;;;;
2023/04/26 20:29:44;;;;;;;10;4.6;;;;;;;4;67.1;98700;;;;
2023/04/26 20:39:44;;;;;;;12.7;5.5;;;;;;;4;67.6;98700;;;;
2023/04/26 20:49:44;;;;;;;12.7;5.5;;;;;;;4;68;98710;;;;
2023/04/26 21:00:44;;;;;;;12.7;5.5;;;;;;;4;68.3;98720;;;;
2023/04/26 21:11:44;;;;;;;18.3;7.7;;;;;;;3.9;69.1;98720;;;;
2023/04/26 21:22:44;;;;;;;18.3;7.7;;;;;;;3.9;69.3;98730;;;;
2023/04/26 21:32:44;;;;;;;10;5.3;;;;;;;3.8;69.3;98730;;;;
2023/04/26 21:42:45;;;;;;;10;5.3;;;;;;;3.7;69.3;98740;;;;
2023/04/26 21:53:44;;;;;;;10;5.3;;;;;;;3.5;69.6;98750;;;;
2023/04/26 22:04:44;;;;;;;9.7;4.1;;;;;;;3.4;69.9;98760;;;;
2023/04/26 22:15:44;;;;;;;9.7;4.1;;;;;;;3.4;70.9;98760;;;;
2023/04/26 22:26:44;;;;;;;9.7;4.1;;;;;;;3.5;71.4;98770;;;;
2023/04/26 22:36:44;;;;;;;7.8;4.5;;;;;;;3.6;71.5;98780;;;;
2023/04/26 22:46:44;;;;;;;7.8;4.5;;;;;;;3.6;71.5;98780;;;;
2023/04/26 22:57:44;;;;;;;7.8;4.5;;;;;;;3.7;72;98790;;;;
2023/04/26 23:08:44;;;;;;;13.5;5.4;;;;;;;3.9;72.3;98800;;;;
2023/04/26 23:19:44;;;;;;;13.5;5.4;;;;;;;4;71.7;98800;;;;
2023/04/26 23:29:44;;;;;;;13.5;5.4;;;;;;;4;71.3;98800;;;;
2023/04/26 23:39:44;;;;;;;12.3;4.9;;;;;;;3.9;72.1;98800;;;;
2023/04/26 23:50:44;;;;;;;12.3;4.9;;;;;;;4;72.2;98800;;;;
